Itaipulandia, Brazil
Current Conditions -  °F | °C
As of 11:00 AM on Friday 24 Oct 2014 (Local Time) from SBFI Reporting Station
Broken Clouds Broken Clouds  
Wind Chill: 81°   Ceiling: 5000
Heat Index: 82°   Visibility: 6mi
Dew Point: 64°   Wind: 8mph
Humidity: 58%   Direction: 100°E
Pressure: 29.94"   Gusts: NA
Location:  25.14°S, 54.3°W
Report Text: SBFI 241300Z 10007KT 9999 FEW030 BKN050 27/18 Q1014
Loading
Personal Weather Stations






























Interactive Weather Map
Tropical Storm Tracking
New forecast layout! Learn more

10-Day Weather Forecast

Advertisements
Track Severe Weather on mobile